Aeroporto :
LOGIN :

Iscrizione | Disclaimer

   EN    FR    IT 

 










Sommario :    VFR   VFR Marginale   IFR   IFR Intensivo   IFR Molto Intensivo
Visibilità : 
Base nubi : 
>= 8 km
>= 3000ft
5 / 8 km
1000 / 3000 ft
1500m / 5 km
500 / 1000 ft
800 / 1500m
200 / 500 ft
< 800m
< 200 ft
Simboli :   Temporali  Nebbia  Neve Forte  Precipitazioni Forti  Vento > 20 kt
SIGMETs :   Varie  Temporali  Ghiacco  Turbolenza  Onda orograficha  Ceneri Vulcaniche






- Altitudine del aeroporto : 479 ft
- Codice IATA : DOL


LFRG - Deauville

ULTIMO METAR :
  • 140630Z AUTO 10008KT 070V170 9999 FEW008 OVC025 13/13 Q1007 TEMPO 3000 TSRA BKN005 BKN015CB

METARs OBSOLETI :
  • 140600Z AUTO 10005KT 060V130 6000 BKN006/// BKN012/// OVC022/// ///TCU 13/13 Q1007 TEMPO 3000 TSRA BKN005 BKN015CB
  • 140530Z AUTO 07005KT 040V120 9999 BKN007 BKN015 OVC022 13/13 Q1007 TEMPO 3000 TSRA BKN005 BKN015CB
  • 140500Z AUTO 07005KT 010V120 9999 SCT006/// BKN010/// BKN015/// ///CB 13/12 Q1008
  • 140430Z AUTO 07006KT 020V100 9999 -DZ BKN003/// OVC029/// ///CB 13/12 Q1008
  • 140400Z AUTO 07006KT 030V110 9999 FEW003/// BKN023/// OVC043/// ///TCU 13/12 Q1009

TAF TAF LFRG
Valido dal 14 a 06 ore il 14 a 15 ore UTC


140500Z 1406/1415 12010KT 9999 BKN030
BECMG 1409/1411 18010KT
TEMPO 1406/1408 4000 RA BKN007 SCT070CB
PROB40
TEMPO 1406/1408 3000 TSRA BKN005 BKN015CB
TEMPO 1412/1415 4000 SHRA BKN015CB
PROB40
TEMPO 1413/1415 20015G30KT 2000 +TSRA
ATIS : +33 2 31 65 65 36



MetMap, La meteo Aeronautica in un colpo d'occhio ! - Copyright ORBIFLY Dicembre 2007 - Disclaimer

ORBIFLY MET'MAP TEAM :

Programmazione e sviluppo : Alexandra Zaïnal
Concezione e sviluppo : Baudouin d'Aumeries
Co-Programmazione e sviluppo : Marc-Olivier Méhu
Supporto tecnico e logistico : Manuel Goepfert
Aiuto per la traduzione : Arnaldo La Scala

Contatto : metmap@orbifly.com




FONTI E CREDITI :

   NOAA